createdAt,value
2019-04-29T00:00:38.474Z,0.00
2019-04-29T00:01:38.475Z,0.00
2019-04-29T00:02:38.500Z,0.00
2019-04-29T00:03:38.462Z,0.00
2019-04-29T00:04:38.460Z,0.00
2019-04-29T00:05:38.461Z,0.00
2019-04-29T00:06:38.455Z,0.00
2019-04-29T00:07:38.480Z,0.00
2019-04-29T00:08:38.436Z,0.00
2019-04-29T00:09:38.434Z,0.00
2019-04-29T00:10:38.452Z,0.00
2019-04-29T00:11:38.427Z,0.00
2019-04-29T00:12:38.451Z,0.00
2019-04-29T00:13:38.420Z,0.00
2019-04-29T00:14:38.410Z,0.00
2019-04-29T00:15:38.404Z,0.00
2019-04-29T00:16:38.430Z,0.00
2019-04-29T00:17:38.399Z,0.00
2019-04-29T00:18:38.424Z,0.00
2019-04-29T00:19:38.398Z,0.00
2019-04-29T00:20:38.386Z,0.00
2019-04-29T00:21:38.437Z,0.00
2019-04-29T00:22:38.379Z,0.00
2019-04-29T00:23:38.371Z,0.00
2019-04-29T00:24:38.429Z,0.00
2019-04-29T00:25:38.365Z,0.00
2019-04-29T00:26:38.374Z,0.00
2019-04-29T00:27:38.352Z,0.00
2019-04-29T00:28:38.353Z,0.00
2019-04-29T00:29:38.386Z,0.00
2019-04-29T00:30:38.339Z,0.00
2019-04-29T00:31:38.331Z,0.00
2019-04-29T00:32:38.333Z,0.00
2019-04-29T00:33:38.324Z,0.00
2019-04-29T00:34:38.347Z,0.00
2019-04-29T00:35:38.433Z,0.00
2019-04-29T00:36:38.312Z,0.00
2019-04-29T00:37:38.308Z,0.00
2019-04-29T00:38:38.308Z,0.00
2019-04-29T00:39:38.329Z,0.00
2019-04-29T00:40:38.294Z,0.00
2019-04-29T00:41:38.296Z,0.00
2019-04-29T00:42:38.284Z,0.00
2019-04-29T00:43:38.280Z,0.00
2019-04-29T00:44:38.305Z,0.00
2019-04-29T00:45:38.268Z,0.00
2019-04-29T00:46:38.265Z,0.00
2019-04-29T00:47:38.260Z,0.00
2019-04-29T00:48:38.260Z,0.00
2019-04-29T00:49:38.276Z,0.00
2019-04-29T00:50:38.247Z,0.00
2019-04-29T00:51:38.241Z,0.00
2019-04-29T00:52:38.237Z,0.00
2019-04-29T00:53:38.230Z,0.00
2019-04-29T00:54:38.257Z,0.00
2019-04-29T00:55:38.228Z,0.00
2019-04-29T00:56:38.221Z,0.00
2019-04-29T00:57:38.258Z,0.00
2019-04-29T00:58:38.209Z,0.00
2019-04-29T00:59:38.207Z,0.00
2019-04-29T01:00:38.289Z,0.00
2019-04-29T01:01:38.197Z,0.00
2019-04-29T01:02:38.189Z,0.00
2019-04-29T01:03:41.041Z,0.00
2019-04-29T01:04:38.186Z,0.00
2019-04-29T01:05:38.207Z,0.00
2019-04-29T01:06:38.174Z,0.00
2019-04-29T01:07:38.195Z,0.00
2019-04-29T01:08:38.165Z,0.00
2019-04-29T01:09:38.158Z,0.00
2019-04-29T01:10:38.154Z,0.00
2019-04-29T01:11:38.178Z,0.00
2019-04-29T01:12:38.146Z,0.00
2019-04-29T01:13:38.142Z,0.00
2019-04-29T01:14:38.135Z,0.00
2019-04-29T01:15:38.135Z,0.00
2019-04-29T01:16:38.158Z,0.00
2019-04-29T01:17:38.125Z,0.00
2019-04-29T01:18:38.120Z,0.00
2019-04-29T01:19:38.114Z,0.00
2019-04-29T01:20:38.111Z,0.00
2019-04-29T01:21:38.130Z,0.00
2019-04-29T01:22:38.095Z,0.00
2019-04-29T01:23:38.098Z,0.00
2019-04-29T01:24:38.092Z,0.00
2019-04-29T01:25:38.082Z,0.00
2019-04-29T01:26:38.111Z,0.00
2019-04-29T01:27:38.080Z,0.00
2019-04-29T01:28:38.108Z,0.00
2019-04-29T01:29:38.067Z,0.00
2019-04-29T01:30:38.079Z,0.00
2019-04-29T01:31:38.064Z,0.00
2019-04-29T01:32:38.127Z,0.00
2019-04-29T01:33:38.051Z,0.00
2019-04-29T01:34:38.049Z,0.00
2019-04-29T01:35:38.045Z,0.00
2019-04-29T01:36:38.039Z,0.00
2019-04-29T01:37:38.079Z,0.00
2019-04-29T01:38:38.032Z,0.00
2019-04-29T01:39:38.029Z,0.00
2019-04-29T01:40:38.024Z,0.00
2019-04-29T01:41:38.016Z,0.00
2019-04-29T01:42:38.046Z,0.00
2019-04-29T01:43:38.011Z,0.00
2019-04-29T01:44:38.005Z,0.00
2019-04-29T01:45:37.998Z,0.00
2019-04-29T01:46:37.996Z,0.00
2019-04-29T01:47:38.016Z,0.00
2019-04-29T01:48:37.988Z,0.00
2019-04-29T01:49:37.986Z,0.00
2019-04-29T01:50:37.984Z,0.00
2019-04-29T01:51:37.974Z,0.00
2019-04-29T01:52:37.998Z,0.00
2019-04-29T01:53:37.965Z,0.00
2019-04-29T01:54:38.003Z,0.00
2019-04-29T01:55:37.952Z,0.00
2019-04-29T01:56:37.955Z,0.00
2019-04-29T01:57:37.946Z,0.00
2019-04-29T01:58:37.968Z,0.00
2019-04-29T01:59:37.968Z,0.00
2019-04-29T02:00:37.932Z,0.00
2019-04-29T02:01:37.931Z,0.00
2019-04-29T02:02:37.926Z,0.00
2019-04-29T02:03:37.925Z,0.00
2019-04-29T02:04:37.950Z,0.00
2019-04-29T02:05:37.913Z,0.00
2019-04-29T02:06:37.909Z,0.00
2019-04-29T02:07:37.908Z,0.00
2019-04-29T02:08:37.905Z,0.00
2019-04-29T02:09:37.926Z,0.00
2019-04-29T02:10:37.891Z,0.00
2019-04-29T02:11:37.885Z,0.00
2019-04-29T02:12:37.885Z,0.00
2019-04-29T02:13:37.878Z,0.00
2019-04-29T02:14:37.899Z,0.00
2019-04-29T02:15:37.873Z,0.00
2019-04-29T02:16:37.870Z,0.00
2019-04-29T02:17:37.870Z,0.00
2019-04-29T02:18:37.853Z,0.00
2019-04-29T02:19:37.883Z,0.00
2019-04-29T02:20:37.854Z,0.00
2019-04-29T02:21:37.845Z,0.00
2019-04-29T02:22:37.841Z,0.00
2019-04-29T02:23:37.860Z,0.00
2019-04-29T02:24:37.830Z,0.00
2019-04-29T02:25:37.850Z,0.00
2019-04-29T02:26:37.818Z,0.00
2019-04-29T02:27:37.822Z,0.00
2019-04-29T02:28:37.822Z,0.00
2019-04-29T02:29:37.815Z,0.00
2019-04-29T02:30:37.839Z,0.00
2019-04-29T02:31:37.802Z,0.00
2019-04-29T02:32:37.798Z,0.00
2019-04-29T02:33:37.796Z,0.00
2019-04-29T02:34:37.792Z,0.00
2019-04-29T02:35:37.822Z,0.00
2019-04-29T02:36:37.920Z,0.00
2019-04-29T02:37:37.775Z,0.00
2019-04-29T02:38:37.769Z,0.00
2019-04-29T02:39:37.769Z,0.00
2019-04-29T02:40:37.760Z,0.00
2019-04-29T02:41:37.787Z,0.00
2019-04-29T02:42:37.755Z,0.00
2019-04-29T02:43:37.752Z,0.00
2019-04-29T02:44:37.755Z,0.00
2019-04-29T02:45:37.746Z,0.00
2019-04-29T02:46:37.792Z,0.00
2019-04-29T02:47:37.736Z,0.00
2019-04-29T02:48:37.740Z,0.00
2019-04-29T02:49:37.724Z,0.00
2019-04-29T02:50:37.752Z,0.00
2019-04-29T02:51:37.720Z,0.00
2019-04-29T02:52:37.715Z,0.00
2019-04-29T02:53:37.707Z,0.00
2019-04-29T02:54:37.700Z,0.00
2019-04-29T02:55:37.710Z,0.00
2019-04-29T02:56:37.732Z,0.00
2019-04-29T02:57:37.692Z,0.00
2019-04-29T02:58:37.700Z,0.00
2019-04-29T02:59:37.686Z,0.00
2019-04-29T03:00:37.707Z,0.00
2019-04-29T03:01:37.707Z,0.00
2019-04-29T03:02:37.670Z,0.00
2019-04-29T03:03:37.674Z,0.00
2019-04-29T03:04:37.678Z,0.00
2019-04-29T03:05:39.923Z,0.00
2019-04-29T03:06:37.685Z,0.00
2019-04-29T03:07:37.649Z,0.00
2019-04-29T03:08:37.646Z,0.00
2019-04-29T03:09:37.641Z,0.00
2019-04-29T03:10:37.640Z,0.00
2019-04-29T03:11:37.663Z,0.00
2019-04-29T03:12:37.629Z,0.00
2019-04-29T03:13:37.648Z,0.00
2019-04-29T03:14:37.619Z,0.00
2019-04-29T03:15:37.620Z,4.00
2019-04-29T03:16:37.637Z,4.00
2019-04-29T03:17:37.633Z,4.00
2019-04-29T03:18:37.600Z,4.00
2019-04-29T03:19:37.597Z,4.00
2019-04-29T03:20:37.593Z,4.00
2019-04-29T03:21:37.586Z,8.00
2019-04-29T03:22:37.616Z,4.00
2019-04-29T03:23:37.582Z,8.00
2019-04-29T03:24:37.577Z,8.00
2019-04-29T03:25:37.574Z,12.00
2019-04-29T03:26:37.598Z,12.00
2019-04-29T03:27:37.572Z,12.00
2019-04-29T03:28:37.562Z,16.00
2019-04-29T03:29:37.569Z,16.00
2019-04-29T03:30:37.558Z,20.00
2019-04-29T03:31:39.399Z,24.00
2019-04-29T03:32:37.542Z,28.00
2019-04-29T03:33:37.536Z,32.00
2019-04-29T03:34:37.545Z,36.00
2019-04-29T03:35:37.557Z,44.00
2019-04-29T03:36:37.526Z,48.00
2019-04-29T03:37:37.523Z,56.00
2019-04-29T03:38:37.510Z,64.00
2019-04-29T03:39:37.510Z,76.00
2019-04-29T03:40:37.534Z,84.00
2019-04-29T03:41:37.506Z,100.00
2019-04-29T03:42:37.521Z,108.00
2019-04-29T03:43:37.494Z,124.00
2019-04-29T03:44:37.491Z,136.00
2019-04-29T03:45:37.484Z,148.00
2019-04-29T03:46:37.508Z,164.00
2019-04-29T03:47:37.582Z,180.00
2019-04-29T03:48:37.476Z,196.00
2019-04-29T03:49:37.480Z,212.00
2019-04-29T03:50:37.494Z,232.00
2019-04-29T03:51:37.458Z,252.00
2019-04-29T03:52:37.483Z,272.00
2019-04-29T03:53:37.465Z,296.00
2019-04-29T03:54:37.440Z,320.00
2019-04-29T03:55:40.525Z,348.00
2019-04-29T03:56:37.476Z,376.00
2019-04-29T03:57:37.445Z,416.00
2019-04-29T03:58:37.426Z,456.00
2019-04-29T03:59:37.421Z,504.00
2019-04-29T04:00:37.416Z,552.00
2019-04-29T04:01:37.444Z,608.00
2019-04-29T04:02:37.412Z,668.00
2019-04-29T04:03:37.413Z,732.00
2019-04-29T04:04:37.400Z,804.00
2019-04-29T04:05:37.402Z,880.00
2019-04-29T04:06:37.423Z,956.00
2019-04-29T04:07:37.390Z,1032.00
2019-04-29T04:08:37.384Z,1108.00
2019-04-29T04:09:37.377Z,1176.00
2019-04-29T04:10:37.375Z,1244.00
2019-04-29T04:11:37.406Z,1304.00
2019-04-29T04:12:37.366Z,1360.00
2019-04-29T04:13:37.359Z,1412.00
2019-04-29T04:14:37.363Z,1460.00
2019-04-29T04:15:37.359Z,1496.00
2019-04-29T04:16:37.372Z,1532.00
2019-04-29T04:17:37.345Z,1564.00
2019-04-29T04:18:37.343Z,1596.00
2019-04-29T04:19:37.337Z,1624.00
2019-04-29T04:20:37.334Z,1664.00
2019-04-29T04:21:37.353Z,1720.00
2019-04-29T04:22:37.327Z,1780.00
2019-04-29T04:23:37.322Z,1844.00
2019-04-29T04:24:37.313Z,1908.00
2019-04-29T04:25:37.319Z,1980.00
2019-04-29T04:26:37.329Z,2040.00
2019-04-29T04:27:37.305Z,2104.00
2019-04-29T04:28:37.300Z,2152.00
2019-04-29T04:29:37.293Z,2200.00
2019-04-29T04:30:37.290Z,2260.00
2019-04-29T04:31:37.311Z,2312.00
2019-04-29T04:32:37.281Z,2376.00
2019-04-29T04:33:37.287Z,2448.00
2019-04-29T04:34:37.285Z,2544.00
2019-04-29T04:35:37.268Z,2644.00
2019-04-29T04:36:37.299Z,2796.00
2019-04-29T04:37:37.261Z,2960.00
2019-04-29T04:38:37.259Z,3116.00
2019-04-29T04:39:37.254Z,3248.00
2019-04-29T04:40:37.250Z,3376.00
2019-04-29T04:41:37.277Z,3524.00
2019-04-29T04:42:37.244Z,3676.00
2019-04-29T04:43:37.269Z,3808.00
2019-04-29T04:44:37.236Z,3888.00
2019-04-29T04:45:37.231Z,3932.00
2019-04-29T04:46:37.225Z,3956.00
2019-04-29T04:47:37.249Z,4000.00
2019-04-29T04:48:37.217Z,4068.00
2019-04-29T04:49:37.232Z,4192.00
2019-04-29T04:50:37.212Z,4368.00
2019-04-29T04:51:37.209Z,4568.00
2019-04-29T04:52:37.235Z,4816.00
2019-04-29T04:53:37.228Z,5044.00
2019-04-29T04:54:37.199Z,5200.00
2019-04-29T04:55:37.189Z,5308.00
2019-04-29T04:56:37.189Z,5364.00
2019-04-29T04:57:37.180Z,5416.00
2019-04-29T04:58:37.205Z,5508.00
2019-04-29T04:59:37.186Z,5612.00
2019-04-29T05:00:37.187Z,5744.00
2019-04-29T05:01:37.169Z,5828.00
2019-04-29T05:02:37.165Z,5868.00
2019-04-29T05:03:37.190Z,5812.00
2019-04-29T05:04:37.202Z,5660.00
2019-04-29T05:05:37.157Z,5464.00
2019-04-29T05:06:37.149Z,5308.00
2019-04-29T05:07:37.146Z,5172.00
2019-04-29T05:08:37.166Z,5088.00
2019-04-29T05:09:37.158Z,5052.00
2019-04-29T05:10:37.137Z,5052.00
2019-04-29T05:11:37.135Z,5080.00
2019-04-29T05:12:37.134Z,5112.00
2019-04-29T05:13:37.154Z,5164.00
2019-04-29T05:14:37.135Z,5224.00
2019-04-29T05:15:37.122Z,5284.00
2019-04-29T05:16:37.117Z,5356.00
2019-04-29T05:17:37.115Z,5432.00
2019-04-29T05:18:37.152Z,5484.00
2019-04-29T05:19:37.106Z,5528.00
2019-04-29T05:20:37.104Z,5560.00
2019-04-29T05:21:37.098Z,5596.00
2019-04-29T05:22:37.095Z,5596.00
2019-04-29T05:23:37.122Z,5560.00
2019-04-29T05:24:37.086Z,5496.00
2019-04-29T05:25:37.090Z,5368.00
2019-04-29T05:26:37.081Z,5216.00
2019-04-29T05:27:37.085Z,5088.00
2019-04-29T05:28:37.112Z,5044.00
2019-04-29T05:29:37.071Z,5076.00
2019-04-29T05:30:37.077Z,5196.00
2019-04-29T05:31:37.067Z,5356.00
2019-04-29T05:32:37.065Z,5460.00
2019-04-29T05:33:37.089Z,5548.00
2019-04-29T05:34:37.061Z,5676.00
2019-04-29T05:35:40.111Z,5836.00
2019-04-29T05:36:38.277Z,6028.00
2019-04-29T05:37:37.042Z,6276.00
2019-04-29T05:38:37.070Z,6488.00
2019-04-29T05:39:37.039Z,6732.00
2019-04-29T05:40:37.035Z,6900.00
2019-04-29T05:41:37.035Z,7064.00
2019-04-29T05:42:37.030Z,7160.00
2019-04-29T05:43:37.054Z,7304.00
2019-04-29T05:44:37.050Z,7448.00
2019-04-29T05:45:37.027Z,7632.00
2019-04-29T05:46:37.019Z,7792.00
2019-04-29T05:47:37.015Z,7984.00
2019-04-29T05:48:37.010Z,8144.00
2019-04-29T05:49:37.383Z,8180.00
2019-04-29T05:50:37.000Z,8068.00
2019-04-29T05:51:37.001Z,7840.00
2019-04-29T05:52:39.629Z,7568.00
2019-04-29T05:53:37.053Z,7328.00
2019-04-29T05:54:36.994Z,7200.00
2019-04-29T05:55:36.988Z,7172.00
2019-04-29T05:56:36.983Z,7264.00
2019-04-29T05:57:36.978Z,7416.00
2019-04-29T05:58:37.675Z,7596.00
2019-04-29T05:59:36.980Z,7736.00
2019-04-29T06:00:36.971Z,7892.00
2019-04-29T06:01:36.967Z,8132.00
2019-04-29T06:02:38.796Z,8488.00
2019-04-29T06:03:37.844Z,8976.00
2019-04-29T06:04:36.985Z,9520.00
2019-04-29T06:05:36.966Z,9956.00
2019-04-29T06:06:36.959Z,10116.00
2019-04-29T06:07:36.953Z,10088.00
2019-04-29T06:08:39.173Z,10024.00
2019-04-29T06:09:36.968Z,10148.00
2019-04-29T06:10:36.957Z,10524.00
2019-04-29T06:11:36.938Z,11124.00
2019-04-29T06:12:36.939Z,11864.00
2019-04-29T06:13:36.932Z,12640.00
2019-04-29T06:14:36.959Z,13448.00
2019-04-29T06:15:37.032Z,14256.00
2019-04-29T06:16:36.925Z,15080.00
2019-04-29T06:17:40.052Z,15924.00
2019-04-29T06:18:36.919Z,16684.00
2019-04-29T06:19:39.320Z,17140.00
2019-04-29T06:20:36.917Z,17568.00
2019-04-29T06:21:36.912Z,17664.00
2019-04-29T06:22:37.925Z,17696.00
2019-04-29T06:23:36.905Z,17568.00
2019-04-29T06:24:40.696Z,17504.00
2019-04-29T06:25:36.897Z,17504.00
2019-04-29T06:26:36.897Z,17824.00
2019-04-29T06:27:36.893Z,18464.00
2019-04-29T06:28:36.899Z,19264.00
2019-04-29T06:29:36.925Z,19936.00
2019-04-29T06:30:40.275Z,20352.00
2019-04-29T06:31:36.893Z,20352.00
2019-04-29T06:32:36.880Z,20096.00
2019-04-29T06:33:36.882Z,19456.00
2019-04-29T06:34:40.181Z,18656.00
2019-04-29T06:35:36.958Z,18336.00
2019-04-29T06:36:36.874Z,18688.00
2019-04-29T06:37:36.873Z,19424.00
2019-04-29T06:38:36.874Z,20224.00
2019-04-29T06:39:36.901Z,20896.00
2019-04-29T06:40:36.929Z,21216.00
2019-04-29T06:41:40.489Z,21152.00
2019-04-29T06:42:36.862Z,20864.00
2019-04-29T06:43:37.816Z,20416.00
2019-04-29T06:44:36.885Z,19840.00
2019-04-29T06:45:36.890Z,19232.00
2019-04-29T06:46:36.860Z,18560.00
2019-04-29T06:47:36.862Z,17612.00
2019-04-29T06:48:36.873Z,16820.00
2019-04-29T06:49:36.854Z,15992.00
2019-04-29T06:50:36.878Z,15264.00
2019-04-29T06:51:36.854Z,14760.00
2019-04-29T06:52:36.850Z,14636.00
2019-04-29T06:53:36.841Z,14628.00
2019-04-29T06:54:36.871Z,14588.00
2019-04-29T06:55:36.856Z,14796.00
2019-04-29T06:56:36.846Z,15432.00
2019-04-29T06:57:36.899Z,16532.00
2019-04-29T06:58:38.381Z,18048.00
2019-04-29T06:59:36.869Z,19200.00
2019-04-29T07:00:36.836Z,19904.00
2019-04-29T07:01:37.580Z,20384.00
2019-04-29T07:02:36.846Z,20704.00
2019-04-29T07:03:36.838Z,20928.00
2019-04-29T07:04:39.581Z,20960.00
2019-04-29T07:05:36.863Z,20416.00
2019-04-29T07:06:36.830Z,19296.00
2019-04-29T07:07:36.826Z,18016.00
2019-04-29T07:08:36.836Z,16628.00
2019-04-29T07:09:36.851Z,15652.00
2019-04-29T07:10:36.825Z,15068.00
2019-04-29T07:11:38.384Z,14808.00
2019-04-29T07:12:36.819Z,14892.00
2019-04-29T07:13:36.818Z,15096.00
2019-04-29T07:14:38.633Z,15372.00
2019-04-29T07:15:36.815Z,15776.00
2019-04-29T07:16:36.823Z,16456.00
2019-04-29T07:17:41.308Z,17192.00
2019-04-29T07:18:40.415Z,18240.00
2019-04-29T07:19:36.839Z,19040.00
2019-04-29T07:20:37.443Z,19904.00
2019-04-29T07:21:36.808Z,20736.00
2019-04-29T07:22:36.798Z,21344.00
2019-04-29T07:23:36.799Z,21632.00
2019-04-29T07:24:36.827Z,21664.00
2019-04-29T07:25:36.796Z,21664.00
2019-04-29T07:26:36.796Z,21824.00
2019-04-29T07:27:43.024Z,22272.00
2019-04-29T07:28:36.793Z,23136.00
2019-04-29T07:29:38.120Z,24032.00
2019-04-29T07:30:39.319Z,25024.00
2019-04-29T07:31:36.787Z,25408.00
2019-04-29T07:32:36.787Z,25344.00
2019-04-29T07:33:36.792Z,24896.00
2019-04-29T07:34:39.562Z,24192.00
2019-04-29T07:35:38.234Z,23296.00
2019-04-29T07:36:36.807Z,22496.00
2019-04-29T07:37:36.782Z,22080.00
2019-04-29T07:38:41.460Z,22240.00
2019-04-29T07:39:36.775Z,23264.00
2019-04-29T07:40:38.814Z,24768.00
2019-04-29T07:41:36.773Z,26048.00
2019-04-29T07:42:36.777Z,27264.00
2019-04-29T07:43:38.497Z,28384.00
2019-04-29T07:44:43.799Z,29536.00
2019-04-29T07:45:44.089Z,30240.00
2019-04-29T07:46:55.660Z,30720.00
2019-04-29T07:47:36.767Z,31520.00
2019-04-29T07:48:41.393Z,32128.00
2019-04-29T07:49:36.796Z,32928.00
2019-04-29T07:50:36.768Z,33920.00
2019-04-29T07:51:39.446Z,34240.00
2019-04-29T07:52:36.769Z,34688.00
2019-04-29T07:53:44.766Z,36512.00
2019-04-29T07:54:36.795Z,38176.00
2019-04-29T07:55:36.763Z,38112.00
2019-04-29T07:56:37.829Z,36896.00
2019-04-29T07:57:36.766Z,36192.00
2019-04-29T07:58:36.772Z,35968.00
2019-04-29T07:59:38.456Z,35136.00
2019-04-29T08:00:36.762Z,33408.00
2019-04-29T08:01:36.765Z,33408.00
2019-04-29T08:02:36.769Z,34016.00
2019-04-29T08:03:36.766Z,35808.00
2019-04-29T08:04:36.792Z,35168.00
2019-04-29T08:05:37.311Z,33376.00
2019-04-29T08:06:38.206Z,29472.00
2019-04-29T08:07:36.792Z,25696.00
2019-04-29T08:08:36.770Z,23872.00
2019-04-29T08:09:39.873Z,24672.00
2019-04-29T08:10:36.803Z,26848.00
2019-04-29T08:11:36.765Z,28640.00
2019-04-29T08:12:36.792Z,28544.00
2019-04-29T08:13:36.772Z,27456.00
2019-04-29T08:14:36.765Z,25248.00
2019-04-29T08:15:41.083Z,22720.00
2019-04-29T08:16:36.795Z,21984.00
2019-04-29T08:17:36.765Z,21312.00
2019-04-29T08:18:36.760Z,19424.00
2019-04-29T08:19:36.766Z,16724.00
2019-04-29T08:20:39.826Z,14672.00
2019-04-29T08:21:36.788Z,13364.00
2019-04-29T08:22:36.763Z,12724.00
2019-04-29T08:23:41.038Z,11816.00
2019-04-29T08:24:37.547Z,11112.00
2019-04-29T08:25:36.764Z,11480.00
2019-04-29T08:26:38.177Z,12488.00
2019-04-29T08:27:39.960Z,12724.00
2019-04-29T08:28:36.761Z,12120.00
2019-04-29T08:29:37.409Z,11884.00
2019-04-29T08:30:36.761Z,12052.00
2019-04-29T08:31:36.791Z,11260.00
2019-04-29T08:32:38.092Z,11380.00
2019-04-29T08:33:36.758Z,10368.00
2019-04-29T08:34:36.762Z,8880.00
2019-04-29T08:35:37.032Z,8768.00
2019-04-29T08:36:36.783Z,9020.00
2019-04-29T08:37:36.754Z,8996.00
2019-04-29T08:38:36.769Z,8936.00
2019-04-29T08:39:36.760Z,8512.00
2019-04-29T08:40:36.751Z,8676.00
2019-04-29T08:41:36.774Z,8604.00
2019-04-29T08:42:37.227Z,8948.00
2019-04-29T08:43:36.748Z,9100.00
2019-04-29T08:44:36.743Z,8340.00
2019-04-29T08:45:39.046Z,7248.00
2019-04-29T08:46:36.747Z,6732.00
2019-04-29T08:47:36.767Z,7628.00
2019-04-29T08:48:36.741Z,10776.00
2019-04-29T08:49:36.737Z,13756.00
2019-04-29T08:50:36.746Z,13788.00
2019-04-29T08:51:36.739Z,12668.00
2019-04-29T08:52:36.760Z,10488.00
2019-04-29T08:53:36.730Z,9672.00
2019-04-29T08:54:37.211Z,10564.00
2019-04-29T08:55:36.792Z,10432.00
2019-04-29T08:56:36.744Z,9936.00
2019-04-29T08:57:37.559Z,9708.00
2019-04-29T08:58:39.391Z,10388.00
2019-04-29T08:59:36.715Z,10028.00
2019-04-29T09:00:36.744Z,9660.00
2019-04-29T09:01:36.742Z,8472.00
2019-04-29T09:02:36.737Z,7476.00
2019-04-29T09:03:40.520Z,7720.00
2019-04-29T09:04:36.717Z,8744.00
2019-04-29T09:05:36.711Z,8236.00
2019-04-29T09:06:36.731Z,7600.00
2019-04-29T09:07:36.709Z,7060.00
2019-04-29T09:08:36.750Z,6764.00
2019-04-29T09:09:36.691Z,6368.00
2019-04-29T09:10:37.851Z,6144.00
2019-04-29T09:11:36.691Z,6096.00
2019-04-29T09:12:36.730Z,6480.00
2019-04-29T09:13:36.692Z,7676.00
2019-04-29T09:14:36.692Z,7252.00
2019-04-29T09:15:36.681Z,7512.00
2019-04-29T09:16:36.685Z,8764.00
2019-04-29T09:17:36.713Z,9124.00
2019-04-29T09:18:36.676Z,10152.00
2019-04-29T09:19:39.286Z,11136.00
2019-04-29T09:20:36.673Z,11196.00
2019-04-29T09:21:36.668Z,10516.00
2019-04-29T09:22:36.696Z,9188.00
2019-04-29T09:23:36.664Z,7476.00
2019-04-29T09:24:36.661Z,6820.00
2019-04-29T09:25:36.720Z,7408.00
2019-04-29T09:26:36.653Z,7804.00
2019-04-29T09:27:36.683Z,9164.00
2019-04-29T09:28:36.652Z,9988.00
2019-04-29T09:29:36.720Z,9356.00
2019-04-29T09:30:38.641Z,9688.00
2019-04-29T09:31:36.644Z,9032.00
2019-04-29T09:32:38.218Z,8784.00
2019-04-29T09:33:36.641Z,8500.00
2019-04-29T09:34:36.664Z,8108.00
2019-04-29T09:35:38.836Z,6936.00
2019-04-29T09:36:36.632Z,6080.00
2019-04-29T09:37:36.630Z,6724.00
2019-04-29T09:38:38.204Z,7412.00
2019-04-29T09:39:43.270Z,8300.00
2019-04-29T09:40:36.620Z,8476.00
2019-04-29T09:41:36.617Z,7796.00
2019-04-29T09:42:36.622Z,7176.00
2019-04-29T09:43:36.641Z,7056.00
2019-04-29T09:44:40.307Z,6980.00
2019-04-29T09:45:36.677Z,6448.00
2019-04-29T09:46:36.612Z,6580.00
2019-04-29T09:47:36.599Z,6792.00
2019-04-29T09:48:36.627Z,6684.00
2019-04-29T09:49:36.597Z,7052.00
2019-04-29T09:50:39.145Z,6364.00
2019-04-29T09:51:36.597Z,6784.00
2019-04-29T09:52:36.588Z,7300.00
2019-04-29T09:53:36.615Z,8208.00
2019-04-29T09:54:36.582Z,8472.00
2019-04-29T09:55:40.075Z,8684.00
2019-04-29T09:56:36.586Z,9036.00
2019-04-29T09:57:36.583Z,9196.00
2019-04-29T09:58:36.606Z,8372.00
2019-04-29T09:59:36.597Z,7800.00
2019-04-29T10:00:40.792Z,7264.00
2019-04-29T10:01:36.564Z,6832.00
2019-04-29T10:02:36.563Z,6832.00
2019-04-29T10:03:36.555Z,7284.00
2019-04-29T10:04:36.598Z,7180.00
2019-04-29T10:05:36.676Z,7824.00
2019-04-29T10:06:36.549Z,8048.00
2019-04-29T10:07:36.551Z,7584.00
2019-04-29T10:08:36.545Z,7356.00
2019-04-29T10:09:36.582Z,6620.00
2019-04-29T10:10:37.421Z,6856.00
2019-04-29T10:11:36.539Z,6048.00
2019-04-29T10:12:36.536Z,5440.00
2019-04-29T10:13:36.530Z,5480.00
2019-04-29T10:14:36.659Z,5656.00
2019-04-29T10:15:36.529Z,6080.00
2019-04-29T10:16:37.197Z,6304.00
2019-04-29T10:17:36.522Z,5628.00
2019-04-29T10:18:36.519Z,4724.00
2019-04-29T10:19:36.544Z,4396.00
2019-04-29T10:20:36.515Z,4520.00
2019-04-29T10:21:36.512Z,6360.00
2019-04-29T10:22:36.506Z,7708.00
2019-04-29T10:23:36.535Z,7360.00
2019-04-29T10:24:36.503Z,6804.00
2019-04-29T10:25:36.523Z,7604.00
2019-04-29T10:26:36.503Z,8748.00
2019-04-29T10:27:36.515Z,9384.00
2019-04-29T10:28:36.491Z,12456.00
2019-04-29T10:29:36.515Z,14228.00
2019-04-29T10:30:36.483Z,15568.00
2019-04-29T10:31:36.552Z,16384.00
2019-04-29T10:32:37.841Z,15264.00
2019-04-29T10:33:36.475Z,12828.00
2019-04-29T10:34:36.499Z,11564.00
2019-04-29T10:35:36.472Z,9892.00
2019-04-29T10:36:36.465Z,10276.00
2019-04-29T10:37:36.463Z,10452.00
2019-04-29T10:38:40.507Z,10720.00
2019-04-29T10:39:36.490Z,11300.00
2019-04-29T10:40:36.457Z,11312.00
2019-04-29T10:41:40.324Z,9904.00
2019-04-29T10:42:36.458Z,9836.00
2019-04-29T10:43:36.451Z,8668.00
2019-04-29T10:44:37.572Z,8652.00
2019-04-29T10:45:36.444Z,8624.00
2019-04-29T10:46:36.470Z,9284.00
2019-04-29T10:47:36.442Z,10964.00
2019-04-29T10:48:36.440Z,11800.00
2019-04-29T10:49:39.180Z,12368.00
2019-04-29T10:50:36.461Z,12392.00
2019-04-29T10:51:36.429Z,12296.00
2019-04-29T10:52:38.590Z,13096.00
2019-04-29T10:53:36.425Z,13912.00
2019-04-29T10:54:36.446Z,13008.00
2019-04-29T10:55:36.422Z,12116.00
2019-04-29T10:56:39.465Z,15316.00
2019-04-29T10:57:36.424Z,15556.00
2019-04-29T10:58:36.414Z,15200.00
2019-04-29T10:59:36.463Z,13764.00
2019-04-29T11:00:36.409Z,12016.00
2019-04-29T11:01:36.405Z,14504.00
2019-04-29T11:02:36.405Z,12968.00
2019-04-29T11:03:36.400Z,12292.00
2019-04-29T11:04:38.038Z,11804.00
2019-04-29T11:05:36.397Z,13260.00
2019-04-29T11:06:37.068Z,11240.00
2019-04-29T11:07:36.393Z,12936.00
2019-04-29T11:08:38.113Z,10168.00
2019-04-29T11:09:36.409Z,9396.00
2019-04-29T11:10:36.385Z,9012.00
2019-04-29T11:11:36.378Z,9476.00
2019-04-29T11:12:36.381Z,9032.00
2019-04-29T11:13:45.930Z,8184.00
2019-04-29T11:14:37.637Z,7552.00
2019-04-29T11:15:36.376Z,8480.00
2019-04-29T11:16:46.225Z,9252.00
2019-04-29T11:17:39.765Z,8188.00
2019-04-29T11:18:36.370Z,7600.00
2019-04-29T11:19:39.896Z,7948.00
2019-04-29T11:20:36.370Z,8264.00
2019-04-29T11:21:38.903Z,8892.00
2019-04-29T11:22:38.291Z,8308.00
2019-04-29T11:23:36.355Z,6064.00
2019-04-29T11:24:36.464Z,7896.00
2019-04-29T11:25:36.350Z,7208.00
2019-04-29T11:26:36.345Z,7128.00
2019-04-29T11:27:36.354Z,7256.00
2019-04-29T11:28:36.370Z,7312.00
2019-04-29T11:29:36.394Z,7652.00
2019-04-29T11:30:39.480Z,7544.00
2019-04-29T11:31:37.326Z,6376.00
2019-04-29T11:32:36.335Z,7624.00
2019-04-29T11:33:40.154Z,6604.00
2019-04-29T11:34:36.324Z,7880.00
2019-04-29T11:35:36.329Z,7548.00
2019-04-29T11:36:38.972Z,5952.00
2019-04-29T11:37:36.323Z,8888.00
2019-04-29T11:38:38.338Z,8772.00
2019-04-29T11:39:36.314Z,7724.00
2019-04-29T11:40:43.507Z,7124.00
2019-04-29T11:41:36.309Z,6844.00
2019-04-29T11:42:39.458Z,6568.00
2019-04-29T11:43:36.304Z,6716.00
2019-04-29T11:44:36.309Z,5900.00
2019-04-29T11:45:38.612Z,8352.00
2019-04-29T11:46:36.295Z,6148.00
2019-04-29T11:47:36.303Z,6884.00
2019-04-29T11:48:36.290Z,5892.00
2019-04-29T11:49:36.287Z,7592.00
2019-04-29T11:50:36.354Z,5560.00
2019-04-29T11:51:48.630Z,5676.00
2019-04-29T11:52:36.282Z,5652.00
2019-04-29T11:53:36.368Z,5444.00
2019-04-29T11:54:36.273Z,4828.00
2019-04-29T11:55:36.278Z,4804.00
2019-04-29T11:56:39.353Z,4772.00
2019-04-29T11:57:41.022Z,4416.00
2019-04-29T11:58:36.264Z,4544.00
2019-04-29T11:59:36.259Z,3912.00
2019-04-29T12:00:36.306Z,4144.00
2019-04-29T12:01:39.297Z,4004.00
2019-04-29T12:02:45.359Z,3512.00
2019-04-29T12:03:37.469Z,3672.00
2019-04-29T12:04:36.248Z,3384.00
2019-04-29T12:05:40.119Z,3408.00
2019-04-29T12:06:36.243Z,3320.00
2019-04-29T12:07:36.258Z,3404.00
2019-04-29T12:08:36.236Z,3792.00
2019-04-29T12:09:36.240Z,4464.00
2019-04-29T12:10:39.252Z,4100.00
2019-04-29T12:11:37.240Z,4032.00
2019-04-29T12:12:36.244Z,5388.00
2019-04-29T12:13:36.249Z,5292.00
2019-04-29T12:14:37.984Z,4912.00
2019-04-29T12:15:36.243Z,6916.00
2019-04-29T12:16:36.220Z,8820.00
2019-04-29T12:17:36.230Z,10112.00
2019-04-29T12:18:38.336Z,9512.00
2019-04-29T12:19:36.208Z,8660.00
2019-04-29T12:20:36.242Z,11288.00